createdAt,value
2023-05-16T00:02:09.826Z,100011.89
2023-05-16T00:05:10.776Z,100016.94
2023-05-16T00:08:11.796Z,100016.41
2023-05-16T00:11:12.752Z,100017.81
2023-05-16T00:14:14.772Z,100020.06
2023-05-16T00:17:18.755Z,100016.26
2023-05-16T00:20:20.763Z,100023.72
2023-05-16T00:23:21.761Z,100023.02
2023-05-16T00:26:23.013Z,100023.90
2023-05-16T00:29:16.804Z,100023.20
2023-05-16T00:32:04.845Z,100024.92
2023-05-16T00:35:05.787Z,100031.36
2023-05-16T00:38:07.816Z,100030.48
2023-05-16T00:41:08.804Z,100030.85
2023-05-16T00:44:09.796Z,100028.58
2023-05-16T00:47:10.805Z,100033.09
2023-05-16T00:50:11.854Z,100034.13
2023-05-16T00:53:12.814Z,100031.36
2023-05-16T00:56:13.804Z,100027.19
2023-05-16T00:59:14.869Z,100028.73
2023-05-16T01:02:15.882Z,100028.56
2023-05-16T01:05:16.841Z,100034.11
2023-05-16T01:08:17.829Z,100032.73
2023-05-16T01:11:21.925Z,100018.83
2023-05-16T01:14:25.862Z,100018.81
2023-05-16T01:17:26.974Z,100016.90
2023-05-16T01:20:54.811Z,100015.85
2023-05-16T01:24:14.898Z,100012.89
2023-05-16T01:27:15.865Z,100015.49
2023-05-16T01:30:24.870Z,100009.23
2023-05-16T01:33:25.902Z,100005.23
2023-05-16T01:36:46.002Z,100004.36
2023-05-16T01:39:46.883Z,100004.70
2023-05-16T01:42:48.913Z,100007.59
2023-05-16T01:45:49.948Z,100008.44
2023-05-16T01:48:56.911Z,100007.73
2023-05-16T01:52:11.889Z,100011.20
2023-05-16T01:55:12.954Z,100005.45
2023-05-16T01:58:13.925Z,100004.89
2023-05-16T02:01:17.976Z,99999.50
2023-05-16T02:04:20.011Z,99998.96
2023-05-16T02:07:22.931Z,99996.87
2023-05-16T02:10:23.944Z,99990.27
2023-05-16T02:13:26.934Z,99993.91
2023-05-16T02:16:30.986Z,99992.50
2023-05-16T02:19:32.127Z,99996.13
2023-05-16T02:22:33.996Z,99990.41
2023-05-16T02:25:34.992Z,99996.46
2023-05-16T02:28:36.963Z,99995.61
2023-05-16T02:31:43.051Z,99996.81
2023-05-16T02:34:44.003Z,99992.14
2023-05-16T02:37:38.130Z,99991.98
2023-05-16T02:40:39.083Z,99990.77
2023-05-16T02:43:39.982Z,99992.33
2023-05-16T02:46:42.088Z,99996.84
2023-05-16T02:49:36.065Z,99994.41
2023-05-16T02:52:22.978Z,100002.73
2023-05-16T02:55:24.228Z,99993.91
2023-05-16T02:58:25.995Z,99999.29
2023-05-16T03:01:27.069Z,99994.26
2023-05-16T03:04:28.032Z,99994.27
2023-05-16T03:07:29.058Z,99991.84
2023-05-16T03:10:32.046Z,99989.77
2023-05-16T03:13:34.084Z,99989.95
2023-05-16T03:16:35.185Z,99981.98
2023-05-16T03:19:36.093Z,99981.66
2023-05-16T03:22:37.098Z,99979.25
2023-05-16T03:25:41.287Z,99993.48
2023-05-16T03:28:42.082Z,99989.16
2023-05-16T03:31:44.137Z,99989.34
2023-05-16T03:34:45.375Z,99980.67
2023-05-16T03:37:46.101Z,99982.24
2023-05-16T03:40:47.193Z,99985.54
2023-05-16T03:43:49.225Z,99982.95
2023-05-16T03:46:51.132Z,99984.17
2023-05-16T03:49:52.106Z,99988.54
2023-05-16T03:52:53.119Z,99992.04
2023-05-16T03:55:54.150Z,99993.27
2023-05-16T03:58:55.118Z,99998.82
2023-05-16T04:01:56.221Z,100007.66
2023-05-16T04:04:57.206Z,100006.44
2023-05-16T04:07:58.154Z,100017.72
2023-05-16T04:10:59.142Z,100035.05
2023-05-16T04:14:01.191Z,100022.73
2023-05-16T04:17:02.381Z,100027.38
2023-05-16T04:19:56.583Z,100028.92
2023-05-16T04:22:57.197Z,100033.95
2023-05-16T04:26:00.621Z,100035.33
2023-05-16T04:29:01.135Z,100042.77
2023-05-16T04:32:02.291Z,100041.21
2023-05-16T04:35:03.714Z,100045.39
2023-05-16T04:38:04.207Z,100044.70
2023-05-16T04:41:05.227Z,100046.25
2023-05-16T04:44:06.260Z,100046.13
2023-05-16T04:47:07.219Z,100055.17
2023-05-16T04:50:08.216Z,100063.84
2023-05-16T04:53:11.252Z,100048.41
2023-05-16T04:56:13.229Z,100053.27
2023-05-16T04:59:14.241Z,100054.30
2023-05-16T05:02:15.422Z,100052.73
2023-05-16T05:05:16.657Z,100053.44
2023-05-16T05:08:17.307Z,100058.12
2023-05-16T05:11:20.381Z,100054.13
2023-05-16T05:14:21.344Z,100055.67
2023-05-16T05:17:23.578Z,100056.55
2023-05-16T05:20:25.902Z,100056.91
2023-05-16T05:23:27.381Z,100058.32
2023-05-16T05:26:29.302Z,100057.98
2023-05-16T05:29:30.296Z,100061.10
2023-05-16T05:32:31.521Z,100053.64
2023-05-16T05:35:33.648Z,100052.45
2023-05-16T05:38:34.308Z,100058.17
2023-05-16T05:41:37.309Z,100043.77
2023-05-16T05:44:38.359Z,100046.36
2023-05-16T05:47:39.390Z,100053.14
2023-05-16T05:50:42.377Z,100059.55
2023-05-16T05:53:44.428Z,100069.09
2023-05-16T05:56:45.553Z,100075.85
2023-05-16T05:59:46.462Z,100080.69
2023-05-16T06:02:47.692Z,100084.50
2023-05-16T06:05:54.517Z,100085.52
2023-05-16T06:08:58.511Z,100089.27
2023-05-16T06:11:59.417Z,100092.90
2023-05-16T06:15:00.542Z,100089.61
2023-05-16T06:18:02.554Z,100093.92
2023-05-16T06:21:04.598Z,100100.66
2023-05-16T06:24:05.413Z,100100.84
2023-05-16T06:27:06.428Z,100095.45
2023-05-16T06:30:08.478Z,100081.55
2023-05-16T06:33:10.566Z,100066.09
2023-05-16T06:36:11.539Z,100051.17
2023-05-16T06:39:14.556Z,100050.47
2023-05-16T06:42:16.554Z,100045.42
2023-05-16T06:45:17.714Z,100046.81
2023-05-16T06:48:18.558Z,100049.42
2023-05-16T06:51:21.568Z,100048.76
2023-05-16T06:54:44.854Z,100050.67
2023-05-16T06:57:50.029Z,100046.86
2023-05-16T07:00:50.511Z,100032.98
2023-05-16T07:03:51.619Z,100034.73
2023-05-16T07:06:54.554Z,100041.83
2023-05-16T07:09:55.545Z,100043.73
2023-05-16T07:12:56.567Z,100033.51
2023-05-16T07:15:57.564Z,100035.60
2023-05-16T07:18:58.605Z,100038.58
2023-05-16T07:21:59.528Z,100037.71
2023-05-16T07:25:03.528Z,100038.62
2023-05-16T07:28:04.559Z,100042.45
2023-05-16T07:31:08.654Z,100041.44
2023-05-16T07:44:11.955Z,100044.68
2023-05-16T07:47:12.406Z,100060.66
2023-05-16T07:50:12.920Z,100066.58
2023-05-16T07:53:13.906Z,100065.36
2023-05-16T07:56:14.012Z,100067.30
2023-05-16T07:59:15.882Z,100070.43
2023-05-16T08:02:15.865Z,100063.14
2023-05-16T08:05:15.858Z,100064.00
2023-05-16T08:08:17.028Z,100058.61
2023-05-16T08:11:16.986Z,100076.50
2023-05-16T08:14:16.833Z,100076.16
2023-05-16T08:17:16.855Z,100083.80
2023-05-16T08:20:16.872Z,100087.27
2023-05-16T08:23:20.053Z,100095.61
2023-05-16T08:26:19.863Z,100101.33
2023-05-16T08:29:19.993Z,100099.06
2023-05-16T08:32:21.994Z,100094.20
2023-05-16T08:35:24.121Z,100118.14
2023-05-16T08:38:24.589Z,100127.17
2023-05-16T08:41:25.022Z,100115.71
2023-05-16T08:44:28.003Z,100091.20
2023-05-16T08:47:36.129Z,100085.27
2023-05-16T08:50:37.075Z,100080.70
2023-05-16T08:53:40.083Z,100066.45
2023-05-16T08:56:40.092Z,100070.11
2023-05-16T08:59:40.129Z,100078.27
2023-05-16T09:02:42.842Z,100072.89
2023-05-16T09:05:43.611Z,100055.19
2023-05-16T09:08:46.185Z,100050.52
2023-05-16T09:11:46.242Z,100053.87
2023-05-16T09:14:47.027Z,100049.39
2023-05-16T09:17:50.569Z,100059.98
2023-05-16T09:20:53.535Z,100060.70
2023-05-16T09:23:56.228Z,100062.45
2023-05-16T09:26:57.069Z,100059.15
2023-05-16T09:29:57.223Z,100065.75
2023-05-16T09:32:58.176Z,100070.09
2023-05-16T09:35:58.081Z,100058.64
2023-05-16T09:38:59.090Z,100063.69
2023-05-16T09:42:05.128Z,100062.13
2023-05-16T09:45:05.286Z,100062.61
2023-05-16T09:48:05.600Z,100060.64
2023-05-16T09:51:11.235Z,100074.54
2023-05-16T09:54:12.097Z,100075.21
2023-05-16T09:57:12.162Z,100069.29
2023-05-16T10:00:14.218Z,100075.53
2023-05-16T10:03:14.176Z,100078.29
2023-05-16T10:06:15.137Z,100078.11
2023-05-16T10:09:16.196Z,100072.88
2023-05-16T10:12:17.233Z,100060.02
2023-05-16T10:15:18.719Z,100064.69
2023-05-16T10:18:19.243Z,100056.99
2023-05-16T10:21:20.160Z,100070.20
2023-05-16T10:24:20.220Z,100061.48
2023-05-16T10:27:20.191Z,100064.60
2023-05-16T10:30:20.184Z,100048.59
2023-05-16T10:33:21.265Z,100048.02
2023-05-16T10:36:27.569Z,100051.50
2023-05-16T10:39:37.485Z,100056.23
2023-05-16T10:42:54.809Z,100050.13
2023-05-16T10:45:58.272Z,100058.30
2023-05-16T10:48:58.903Z,100056.92
2023-05-16T10:51:59.182Z,100053.81
2023-05-16T10:55:04.243Z,100049.12
2023-05-16T10:58:04.254Z,100062.52
2023-05-16T11:01:24.389Z,100072.11
2023-05-16T11:04:25.391Z,100065.88
2023-05-16T11:07:25.904Z,100058.06
2023-05-16T11:10:29.362Z,100066.57
2023-05-16T11:13:30.258Z,100083.63
2023-05-16T11:16:42.341Z,100073.54
2023-05-16T11:19:52.260Z,100072.16
2023-05-16T11:22:52.273Z,100060.83
2023-05-16T11:25:52.476Z,100055.92
2023-05-16T11:28:52.350Z,100053.59
2023-05-16T11:31:53.460Z,100065.90
2023-05-16T11:34:57.522Z,100056.66
2023-05-16T11:38:00.381Z,100054.95
2023-05-16T11:41:00.288Z,100060.34
2023-05-16T11:44:04.360Z,100058.23
2023-05-16T11:47:04.454Z,100075.45
2023-05-16T11:50:10.379Z,100062.57
2023-05-16T11:53:12.330Z,100072.30
2023-05-16T11:56:16.794Z,100063.21
2023-05-16T11:59:17.446Z,100071.04
2023-05-16T12:02:20.309Z,100060.25
2023-05-16T12:05:21.465Z,100053.65
2023-05-16T12:08:22.352Z,100041.44
2023-05-16T12:11:23.661Z,100044.21
2023-05-16T12:14:26.352Z,100078.02
2023-05-16T12:17:28.484Z,100052.45
2023-05-16T12:20:32.621Z,100059.61
2023-05-16T12:23:35.379Z,100045.02
2023-05-16T12:26:44.394Z,100051.99
2023-05-16T12:29:44.384Z,100048.11
2023-05-16T12:32:44.562Z,100050.92
2023-05-16T12:35:44.413Z,100051.83
2023-05-16T12:38:46.831Z,100061.92
2023-05-16T12:41:48.665Z,100050.64
2023-05-16T12:44:48.583Z,100060.91
2023-05-16T12:47:49.459Z,100054.30
2023-05-16T12:50:49.434Z,100052.90
2023-05-16T12:54:08.944Z,100042.64
2023-05-16T12:57:13.623Z,100043.20
2023-05-16T13:00:07.900Z,100044.81
2023-05-16T13:03:08.606Z,100036.83
2023-05-16T13:06:10.463Z,100039.27
2023-05-16T13:09:11.645Z,100037.31
2023-05-16T13:12:13.621Z,100039.20
2023-05-16T13:15:14.471Z,100038.46
2023-05-16T13:18:14.511Z,100038.46
2023-05-16T13:21:14.589Z,100036.55
2023-05-16T13:24:14.476Z,100047.66
2023-05-16T13:27:15.506Z,100040.70
2023-05-16T13:30:15.552Z,100041.02
2023-05-16T13:33:17.531Z,100036.81
2023-05-16T13:36:17.671Z,100044.11
2023-05-16T13:39:20.532Z,100046.06
2023-05-16T13:42:20.538Z,100032.89
2023-05-16T13:45:20.526Z,100040.76
2023-05-16T13:48:24.365Z,100031.86
2023-05-16T13:51:24.583Z,100027.67
2023-05-16T13:54:25.598Z,100034.94
2023-05-16T13:57:25.582Z,100028.95
2023-05-16T14:00:43.465Z,100029.92
2023-05-16T14:03:54.143Z,100028.98
2023-05-16T14:06:55.584Z,100025.39
2023-05-16T14:09:56.221Z,100027.75
2023-05-16T14:12:57.672Z,100030.06
2023-05-16T14:15:57.602Z,100029.92
2023-05-16T14:18:58.681Z,100024.58
2023-05-16T14:22:01.128Z,100025.16
2023-05-16T14:24:55.818Z,100029.80
2023-05-16T14:27:59.377Z,100024.55
2023-05-16T14:30:59.642Z,100032.45
2023-05-16T14:33:59.622Z,100031.56
2023-05-16T14:36:59.730Z,100030.09
2023-05-16T14:40:01.601Z,100032.23
2023-05-16T14:43:03.675Z,100031.59
2023-05-16T14:46:04.806Z,100026.08
2023-05-16T14:49:04.624Z,100027.86
2023-05-16T14:52:04.730Z,100037.73
2023-05-16T14:55:04.714Z,100033.61
2023-05-16T14:58:05.693Z,100030.67
2023-05-16T15:01:05.695Z,100028.93
2023-05-16T15:04:05.659Z,100030.69
2023-05-16T15:07:07.297Z,100031.11
2023-05-16T15:10:08.653Z,100027.36
2023-05-16T15:13:08.812Z,100024.77
2023-05-16T15:16:11.153Z,100027.23
2023-05-16T15:19:11.744Z,100026.54
2023-05-16T15:22:15.707Z,100036.11
2023-05-16T15:25:16.779Z,100033.00
2023-05-16T15:28:19.930Z,100037.40
2023-05-16T15:31:21.829Z,100033.41
2023-05-16T15:34:21.776Z,100036.18
2023-05-16T15:37:21.814Z,100029.73
2023-05-16T15:40:26.372Z,100029.35
2023-05-16T15:43:35.577Z,100028.61
2023-05-16T15:46:48.309Z,100031.92
2023-05-16T15:53:41.377Z,100020.74
2023-05-16T15:56:43.817Z,100019.67
2023-05-16T15:59:43.859Z,100022.11
2023-05-16T16:02:43.895Z,100026.98
2023-05-16T16:05:44.224Z,100028.70
2023-05-16T16:08:44.814Z,100024.86
2023-05-16T16:11:44.847Z,100028.15
2023-05-16T16:14:45.032Z,100023.79
2023-05-16T16:17:49.717Z,100025.36
2023-05-16T16:20:57.236Z,100024.55
2023-05-16T16:24:03.040Z,100025.27
2023-05-16T16:27:04.647Z,100025.29
2023-05-16T16:30:08.792Z,100024.96
2023-05-16T16:33:08.855Z,100025.86
2023-05-16T16:36:08.886Z,100028.52
2023-05-16T16:39:11.812Z,100024.18
2023-05-16T16:42:17.754Z,100026.96
2023-05-16T16:45:29.340Z,100026.80
2023-05-16T16:48:32.894Z,100023.17
2023-05-16T16:51:39.710Z,100022.14
2023-05-16T16:54:45.851Z,100025.29
2023-05-16T16:57:46.920Z,100024.60
2023-05-16T17:00:47.960Z,100026.54
2023-05-16T17:03:47.908Z,100025.15
2023-05-16T17:06:48.779Z,100022.55
2023-05-16T17:09:49.658Z,100024.82
2023-05-16T17:12:55.978Z,100024.98
2023-05-16T17:15:56.883Z,100023.28
2023-05-16T17:18:59.100Z,100024.88
2023-05-16T17:22:00.588Z,100030.45
2023-05-16T17:25:01.941Z,100029.77
2023-05-16T17:28:02.942Z,100023.17
2023-05-16T17:31:08.278Z,100029.27
2023-05-16T17:34:13.138Z,100027.39
2023-05-16T17:37:17.547Z,100024.77
2023-05-16T17:40:22.964Z,100027.92
2023-05-16T17:43:23.172Z,100029.67
2023-05-16T17:46:27.322Z,100034.90
2023-05-16T17:49:29.201Z,100035.59
2023-05-16T17:52:30.280Z,100036.80
2023-05-16T17:55:30.212Z,100039.27
2023-05-16T17:58:30.945Z,100035.61
2023-05-16T18:01:30.989Z,100039.63
2023-05-16T18:04:34.060Z,100037.02
2023-05-16T18:07:35.065Z,100035.29
2023-05-16T18:10:50.262Z,100044.36
2023-05-16T18:13:51.987Z,100044.20
2023-05-16T18:17:19.486Z,100042.46
2023-05-16T18:20:26.136Z,100044.56
2023-05-16T18:23:27.363Z,100047.34
2023-05-16T18:26:28.297Z,100046.65
2023-05-16T18:29:28.186Z,100047.88
2023-05-16T18:32:28.062Z,100045.44
2023-05-16T18:35:30.248Z,100047.17
2023-05-16T18:38:33.094Z,100047.17
2023-05-16T18:41:34.445Z,100051.52
2023-05-16T18:44:39.988Z,100057.43
2023-05-16T18:47:40.175Z,100061.77
2023-05-16T18:50:40.170Z,100070.98
2023-05-16T18:53:40.249Z,100064.55
2023-05-16T18:56:40.403Z,100064.91
2023-05-16T18:59:41.146Z,100061.95
2023-05-16T19:02:42.838Z,100064.56
2023-05-16T19:05:47.649Z,100061.43
2023-05-16T19:08:51.153Z,100062.44
2023-05-16T19:11:54.305Z,100064.36
2023-05-16T19:14:57.186Z,100058.11
2023-05-16T19:17:59.259Z,100060.36
2023-05-16T19:20:59.127Z,100058.64
2023-05-16T19:23:59.331Z,100056.73
2023-05-16T19:27:00.208Z,100058.63
2023-05-16T19:30:00.204Z,100058.45
2023-05-16T19:33:05.219Z,100058.45
2023-05-16T19:36:06.163Z,100060.36
2023-05-16T19:39:06.220Z,100057.77
2023-05-16T19:42:07.482Z,100058.96
2023-05-16T19:45:11.591Z,100058.45
2023-05-16T19:48:17.254Z,100057.23
2023-05-16T19:51:40.186Z,100061.23
2023-05-16T19:54:42.255Z,100058.61
2023-05-16T19:57:43.225Z,100064.69
2023-05-16T20:00:45.838Z,100061.21
2023-05-16T20:03:47.225Z,100063.29
2023-05-16T20:06:47.311Z,100061.38
2023-05-16T20:09:48.923Z,100054.61
2023-05-16T20:12:51.209Z,100055.65
2023-05-16T20:15:54.243Z,100053.92
2023-05-16T20:18:49.402Z,100051.65
2023-05-16T20:21:49.281Z,100057.05
2023-05-16T20:24:50.236Z,100061.88
2023-05-16T20:27:51.340Z,100064.65
2023-05-16T20:30:51.271Z,100064.48
2023-05-16T20:33:53.377Z,100064.84
2023-05-16T20:36:53.383Z,100056.48
2023-05-16T20:39:54.317Z,100056.14
2023-05-16T20:42:58.291Z,100050.57
2023-05-16T20:45:58.300Z,100050.39
2023-05-16T20:48:58.326Z,100047.45
2023-05-16T20:51:58.306Z,100047.44
2023-05-16T20:54:59.306Z,100047.61
2023-05-16T20:57:59.302Z,100046.39
2023-05-16T21:00:59.329Z,100049.86
2023-05-16T21:04:00.315Z,100045.34
2023-05-16T21:07:00.375Z,100041.69
2023-05-16T21:10:00.285Z,100037.87
2023-05-16T21:13:01.490Z,100034.55
2023-05-16T21:16:01.315Z,100034.89
2023-05-16T21:19:01.526Z,100034.03
2023-05-16T21:22:02.370Z,100032.82
2023-05-16T21:25:02.402Z,100033.34
2023-05-16T21:28:02.401Z,100031.25
2023-05-16T21:31:03.384Z,100027.78
2023-05-16T21:34:06.408Z,100028.81
2023-05-16T21:37:07.365Z,100027.59
2023-05-16T21:40:07.392Z,100029.50
2023-05-16T21:43:08.334Z,100028.98
2023-05-16T21:46:09.257Z,100032.11
2023-05-16T21:49:09.374Z,100030.02
2023-05-16T21:52:09.313Z,100029.15
2023-05-16T21:55:10.332Z,100028.80
2023-05-16T21:58:11.666Z,100026.02
2023-05-16T22:01:11.307Z,100029.62
2023-05-16T22:04:12.486Z,100031.35
2023-05-16T22:07:12.267Z,100025.96
2023-05-16T22:10:18.453Z,100027.35
2023-05-16T22:13:20.069Z,100021.80
2023-05-16T22:16:20.360Z,100026.48
2023-05-16T22:19:20.413Z,100034.61
2023-05-16T22:22:20.772Z,100029.92
2023-05-16T22:25:22.397Z,100037.38
2023-05-16T22:28:22.386Z,100039.27
2023-05-16T22:31:24.686Z,100038.77
2023-05-16T22:34:27.367Z,100035.29
2023-05-16T22:37:27.410Z,100038.92
2023-05-16T22:40:29.459Z,100042.89
2023-05-16T22:43:29.392Z,100036.83
2023-05-16T22:46:29.433Z,100042.55
2023-05-16T22:49:30.656Z,100044.13
2023-05-16T22:52:31.371Z,100043.61
2023-05-16T22:55:33.516Z,100046.74
2023-05-16T22:58:33.460Z,100044.16
2023-05-16T23:01:38.073Z,100044.68
2023-05-16T23:04:39.483Z,100042.77
2023-05-16T23:07:41.604Z,100042.60
2023-05-16T23:10:41.415Z,100045.02
2023-05-16T23:13:42.480Z,100044.33
2023-05-16T23:16:42.489Z,100045.05
2023-05-16T23:19:42.471Z,100041.40
2023-05-16T23:22:42.511Z,100042.96
2023-05-16T23:25:42.520Z,100042.09
2023-05-16T23:28:43.455Z,100045.39
2023-05-16T23:31:43.476Z,100047.31
2023-05-16T23:34:43.550Z,100045.95
2023-05-16T23:37:43.449Z,100045.77
2023-05-16T23:40:43.463Z,100047.86
2023-05-16T23:43:43.473Z,100042.83
2023-05-16T23:46:43.472Z,100044.05
2023-05-16T23:49:43.538Z,100045.09
2023-05-16T23:52:44.627Z,100048.05
2023-05-16T23:55:44.562Z,100052.74
2023-05-16T23:58:44.701Z,100052.23
